sensor_id;sensor_type;location;lat;lon;timestamp;pressure;altitude;pressure_sealevel;temperature;humidity
48041;BME280;33815;48.386;11.738;2023-07-20T00:01:43;96288.66;;;17.15;100.00
48041;BME280;33815;48.386;11.738;2023-07-20T00:04:10;96288.06;;;17.19;100.00
48041;BME280;33815;48.386;11.738;2023-07-20T00:06:35;96285.22;;;17.14;100.00
48041;BME280;33815;48.386;11.738;2023-07-20T00:09:01;96298.59;;;17.19;100.00
48041;BME280;33815;48.386;11.738;2023-07-20T00:11:27;96300.63;;;17.24;100.00
48041;BME280;33815;48.386;11.738;2023-07-20T00:13:52;96290.09;;;17.17;100.00
48041;BME280;33815;48.386;11.738;2023-07-20T00:16:18;96298.81;;;17.24;100.00
48041;BME280;33815;48.386;11.738;2023-07-20T00:18:43;96289.25;;;17.17;100.00
48041;BME280;33815;48.386;11.738;2023-07-20T00:21:08;96282.59;;;17.14;100.00
48041;BME280;33815;48.386;11.738;2023-07-20T00:23:34;96286.84;;;17.22;100.00
48041;BME280;33815;48.386;11.738;2023-07-20T00:25:59;96302.47;;;17.23;100.00
48041;BME280;33815;48.386;11.738;2023-07-20T00:28:25;96297.41;;;17.28;100.00
48041;BME280;33815;48.386;11.738;2023-07-20T00:30:50;96298.22;;;17.29;100.00
48041;BME280;33815;48.386;11.738;2023-07-20T00:33:16;96300.25;;;17.27;100.00
48041;BME280;33815;48.386;11.738;2023-07-20T00:35:42;96292.31;;;17.20;100.00
48041;BME280;33815;48.386;11.738;2023-07-20T00:38:07;96287.47;;;17.17;100.00
48041;BME280;33815;48.386;11.738;2023-07-20T00:40:36;96295.78;;;17.14;100.00
48041;BME280;33815;48.386;11.738;2023-07-20T00:43:02;96301.84;;;17.15;100.00
48041;BME280;33815;48.386;11.738;2023-07-20T00:45:28;96303.47;;;17.22;100.00
48041;BME280;33815;48.386;11.738;2023-07-20T00:47:54;96307.72;;;17.23;100.00
48041;BME280;33815;48.386;11.738;2023-07-20T00:50:19;96289.66;;;17.13;100.00
48041;BME280;33815;48.386;11.738;2023-07-20T00:52:45;96305.09;;;17.23;100.00
48041;BME280;33815;48.386;11.738;2023-07-20T00:55:10;96299.59;;;17.18;100.00
48041;BME280;33815;48.386;11.738;2023-07-20T00:57:36;96301.06;;;17.27;100.00
48041;BME280;33815;48.386;11.738;2023-07-20T01:00:02;96299.81;;;17.23;100.00
48041;BME280;33815;48.386;11.738;2023-07-20T01:02:27;96299.41;;;17.26;100.00
48041;BME280;33815;48.386;11.738;2023-07-20T01:04:53;96300.84;;;17.29;100.00
48041;BME280;33815;48.386;11.738;2023-07-20T01:07:42;96299.41;;;17.26;100.00
48041;BME280;33815;48.386;11.738;2023-07-20T01:10:20;96289.28;;;17.23;100.00
48041;BME280;33815;48.386;11.738;2023-07-20T01:12:52;96297.63;;;17.27;100.00
48041;BME280;33815;48.386;11.738;2023-07-20T01:15:18;96299.44;;;17.33;100.00
48041;BME280;33815;48.386;11.738;2023-07-20T01:17:44;96300.47;;;17.39;100.00
48041;BME280;33815;48.386;11.738;2023-07-20T01:20:12;96305.53;;;17.40;100.00
48041;BME280;33815;48.386;11.738;2023-07-20T01:25:42;96296.81;;;17.40;100.00
48041;BME280;33815;48.386;11.738;2023-07-20T01:31:30;96294.19;;;17.40;100.00
48041;BME280;33815;48.386;11.738;2023-07-20T01:34:00;96270.06;;;17.29;100.00
48041;BME280;33815;48.386;11.738;2023-07-20T01:36:29;96288.72;;;17.41;100.00
48041;BME280;33815;48.386;11.738;2023-07-20T01:38:56;96292.78;;;17.44;100.00
48041;BME280;33815;48.386;11.738;2023-07-20T01:41:21;96283.66;;;17.40;100.00
48041;BME280;33815;48.386;11.738;2023-07-20T01:43:47;96294.41;;;17.45;100.00
48041;BME280;33815;48.386;11.738;2023-07-20T01:46:12;96299.28;;;17.48;100.00
48041;BME280;33815;48.386;11.738;2023-07-20T01:48:38;96288.72;;;17.41;100.00
48041;BME280;33815;48.386;11.738;2023-07-20T01:51:03;96297.44;;;17.49;100.00
48041;BME280;33815;48.386;11.738;2023-07-20T01:53:28;96287.09;;;17.47;100.00
48041;BME280;33815;48.386;11.738;2023-07-20T01:55:54;96299.69;;;17.45;100.00
48041;BME280;33815;48.386;11.738;2023-07-20T01:58:19;96297.03;;;17.45;100.00
48041;BME280;33815;48.386;11.738;2023-07-20T02:00:45;96285.66;;;17.38;100.00
48041;BME280;33815;48.386;11.738;2023-07-20T02:03:10;96289.94;;;17.39;100.00
48041;BME280;33815;48.386;11.738;2023-07-20T02:05:37;96301.50;;;17.44;100.00
48041;BME280;33815;48.386;11.738;2023-07-20T02:08:02;96302.72;;;17.49;100.00
48041;BME280;33815;48.386;11.738;2023-07-20T02:10:27;96298.25;;;17.42;100.00
48041;BME280;33815;48.386;11.738;2023-07-20T02:12:53;96293.19;;;17.41;100.00
48041;BME280;33815;48.386;11.738;2023-07-20T02:15:18;96305.34;;;17.49;100.00
48041;BME280;33815;48.386;11.738;2023-07-20T02:17:44;96306.56;;;17.46;100.00
48041;BME280;33815;48.386;11.738;2023-07-20T02:20:10;96306.75;;;17.44;100.00
48041;BME280;33815;48.386;11.738;2023-07-20T02:22:36;96310.22;;;17.45;100.00
48041;BME280;33815;48.386;11.738;2023-07-20T02:25:04;96302.69;;;17.35;100.00
48041;BME280;33815;48.386;11.738;2023-07-20T02:27:29;96308.59;;;17.44;100.00
48041;BME280;33815;48.386;11.738;2023-07-20T02:29:54;96311.84;;;17.53;100.00
48041;BME280;33815;48.386;11.738;2023-07-20T02:32:20;96301.50;;;17.51;100.00
48041;BME280;33815;48.386;11.738;2023-07-20T02:34:45;96302.31;;;17.58;100.00
48041;BME280;33815;48.386;11.738;2023-07-20T02:37:10;96299.50;;;17.67;97.94
48041;BME280;33815;48.386;11.738;2023-07-20T02:39:38;96297.47;;;17.62;96.76
48041;BME280;33815;48.386;11.738;2023-07-20T02:42:03;96299.91;;;17.63;93.86
48041;BME280;33815;48.386;11.738;2023-07-20T02:44:29;96307.41;;;17.67;92.24
48041;BME280;33815;48.386;11.738;2023-07-20T02:46:55;96308.81;;;17.69;91.42
48041;BME280;33815;48.386;11.738;2023-07-20T02:49:20;96305.16;;;17.77;92.28
48041;BME280;33815;48.386;11.738;2023-07-20T02:51:45;96316.13;;;17.74;90.46
48041;BME280;33815;48.386;11.738;2023-07-20T02:54:11;96310.44;;;17.57;93.13
48041;BME280;33815;48.386;11.738;2023-07-20T02:56:37;96291.94;;;17.23;92.36
48041;BME280;33815;48.386;11.738;2023-07-20T02:59:02;96315.44;;;17.32;94.68
48041;BME280;33815;48.386;11.738;2023-07-20T03:01:27;96328.00;;;17.36;97.13
48041;BME280;33815;48.386;11.738;2023-07-20T03:03:54;96313.41;;;17.27;95.39
48041;BME280;33815;48.386;11.738;2023-07-20T03:06:19;96334.31;;;17.35;94.10
48041;BME280;33815;48.386;11.738;2023-07-20T03:08:45;96341.59;;;17.40;93.78
48041;BME280;33815;48.386;11.738;2023-07-20T03:11:13;96328.41;;;17.33;94.58
48041;BME280;33815;48.386;11.738;2023-07-20T03:13:39;96341.22;;;17.50;91.85
48041;BME280;33815;48.386;11.738;2023-07-20T03:16:04;96333.31;;;17.50;90.36
48041;BME280;33815;48.386;11.738;2023-07-20T03:18:29;96328.66;;;17.45;89.23
48041;BME280;33815;48.386;11.738;2023-07-20T03:20:55;96332.69;;;17.47;89.23
48041;BME280;33815;48.386;11.738;2023-07-20T03:23:20;96325.19;;;17.44;87.23
48041;BME280;33815;48.386;11.738;2023-07-20T03:25:45;96331.09;;;17.46;88.11
48041;BME280;33815;48.386;11.738;2023-07-20T03:28:10;96335.13;;;17.42;87.77
48041;BME280;33815;48.386;11.738;2023-07-20T03:30:36;96342.22;;;17.42;88.47
48041;BME280;33815;48.386;11.738;2023-07-20T03:33:01;96335.50;;;17.39;87.64
48041;BME280;33815;48.386;11.738;2023-07-20T03:35:28;96354.59;;;17.48;86.71
48041;BME280;33815;48.386;11.738;2023-07-20T03:37:53;96338.38;;;17.51;86.15
48041;BME280;33815;48.386;11.738;2023-07-20T03:40:18;96333.72;;;17.46;85.56
48041;BME280;33815;48.386;11.738;2023-07-20T03:42:44;96351.41;;;17.66;84.73
48041;BME280;33815;48.386;11.738;2023-07-20T03:45:09;96340.41;;;17.49;84.82
48041;BME280;33815;48.386;11.738;2023-07-20T03:47:34;96343.44;;;17.46;85.78
48041;BME280;33815;48.386;11.738;2023-07-20T03:50:00;96351.56;;;17.64;84.49
48041;BME280;33815;48.386;11.738;2023-07-20T03:52:25;96355.84;;;17.72;83.63
48041;BME280;33815;48.386;11.738;2023-07-20T03:54:51;96361.72;;;17.61;84.16
48041;BME280;33815;48.386;11.738;2023-07-20T03:57:16;96345.09;;;17.60;83.90
48041;BME280;33815;48.386;11.738;2023-07-20T03:59:45;96367.22;;;17.66;82.74
48041;BME280;33815;48.386;11.738;2023-07-20T04:02:10;96354.63;;;17.61;82.78
48041;BME280;33815;48.386;11.738;2023-07-20T04:04:35;96363.56;;;17.60;81.86
48041;BME280;33815;48.386;11.738;2023-07-20T04:07:01;96364.38;;;17.68;81.63
48041;BME280;33815;48.386;11.738;2023-07-20T04:09:26;96362.75;;;17.73;81.12
48041;BME280;33815;48.386;11.738;2023-07-20T04:11:51;96365.16;;;17.68;81.85
48041;BME280;33815;48.386;11.738;2023-07-20T04:14:16;96372.47;;;17.66;81.99
48041;BME280;33815;48.386;11.738;2023-07-20T04:16:42;96375.69;;;17.61;82.09
48041;BME280;33815;48.386;11.738;2023-07-20T04:19:07;96365.78;;;17.63;81.30
48041;BME280;33815;48.386;11.738;2023-07-20T04:21:32;96374.53;;;17.77;78.75
48041;BME280;33815;48.386;11.738;2023-07-20T04:23:58;96363.75;;;17.66;78.66
48041;BME280;33815;48.386;11.738;2023-07-20T04:26:23;96361.09;;;17.59;79.55
48041;BME280;33815;48.386;11.738;2023-07-20T04:28:49;96379.97;;;17.62;79.75
48041;BME280;33815;48.386;11.738;2023-07-20T04:31:15;96380.16;;;17.61;79.86
48041;BME280;33815;48.386;11.738;2023-07-20T04:33:41;96371.25;;;17.62;79.08
48041;BME280;33815;48.386;11.738;2023-07-20T04:36:07;96384.44;;;17.62;80.23
48041;BME280;33815;48.386;11.738;2023-07-20T04:38:33;96377.31;;;17.62;79.98
48041;BME280;33815;48.386;11.738;2023-07-20T04:40:58;96384.81;;;17.66;79.01
48041;BME280;33815;48.386;11.738;2023-07-20T04:43:23;96368.19;;;17.58;77.96
48041;BME280;33815;48.386;11.738;2023-07-20T04:45:48;96382.19;;;17.66;77.78
48041;BME280;33815;48.386;11.738;2023-07-20T04:48:16;96392.34;;;17.75;76.64
48041;BME280;33815;48.386;11.738;2023-07-20T04:50:44;96389.53;;;17.70;77.50
48041;BME280;33815;48.386;11.738;2023-07-20T04:53:13;96378.16;;;17.70;75.11
48041;BME280;33815;48.386;11.738;2023-07-20T04:55:39;96386.28;;;17.81;74.76
48041;BME280;33815;48.386;11.738;2023-07-20T04:58:05;96396.63;;;17.83;73.39
48041;BME280;33815;48.386;11.738;2023-07-20T05:00:32;96384.28;;;18.04;70.76
48041;BME280;33815;48.386;11.738;2023-07-20T05:02:58;96391.19;;;18.05;69.49
48041;BME280;33815;48.386;11.738;2023-07-20T05:05:23;96387.16;;;17.95;70.38
48041;BME280;33815;48.386;11.738;2023-07-20T05:07:49;96387.75;;;17.97;69.06
48041;BME280;33815;48.386;11.738;2023-07-20T05:10:14;96380.03;;;18.09;69.22
48041;BME280;33815;48.386;11.738;2023-07-20T05:12:39;96375.59;;;18.17;68.41
48041;BME280;33815;48.386;11.738;2023-07-20T05:15:05;96381.69;;;18.24;69.24
48041;BME280;33815;48.386;11.738;2023-07-20T05:17:30;96380.66;;;18.18;68.60
48041;BME280;33815;48.386;11.738;2023-07-20T05:19:56;96398.31;;;18.38;67.02
48041;BME280;33815;48.386;11.738;2023-07-20T05:22:21;96400.53;;;18.27;67.84
48041;BME280;33815;48.386;11.738;2023-07-20T05:24:46;96388.97;;;18.22;67.00
48041;BME280;33815;48.386;11.738;2023-07-20T05:27:11;96389.16;;;18.13;67.67
48041;BME280;33815;48.386;11.738;2023-07-20T05:29:37;96404.59;;;18.10;67.83
48041;BME280;33815;48.386;11.738;2023-07-20T05:32:02;96405.78;;;18.01;69.15
48041;BME280;33815;48.386;11.738;2023-07-20T05:34:28;96413.31;;;18.10;69.35
48041;BME280;33815;48.386;11.738;2023-07-20T05:36:55;96404.00;;;18.21;67.84
48041;BME280;33815;48.386;11.738;2023-07-20T05:39:20;96397.09;;;18.34;67.94
48041;BME280;33815;48.386;11.738;2023-07-20T05:41:45;96406.03;;;18.46;67.29
48041;BME280;33815;48.386;11.738;2023-07-20T05:44:10;96387.75;;;18.38;67.00
48041;BME280;33815;48.386;11.738;2023-07-20T05:46:36;96404.78;;;18.48;67.65
48041;BME280;33815;48.386;11.738;2023-07-20T05:49:01;96411.09;;;18.47;66.72
48041;BME280;33815;48.386;11.738;2023-07-20T05:51:27;96415.56;;;18.34;67.52
48041;BME280;33815;48.386;11.738;2023-07-20T05:53:52;96411.91;;;18.48;66.64
48041;BME280;33815;48.386;11.738;2023-07-20T05:56:18;96409.06;;;18.29;67.52
48041;BME280;33815;48.386;11.738;2023-07-20T05:58:43;96414.34;;;18.36;67.90
48041;BME280;33815;48.386;11.738;2023-07-20T06:01:08;96407.03;;;18.31;67.78
48041;BME280;33815;48.386;11.738;2023-07-20T06:03:34;96414.16;;;18.38;67.95
48041;BME280;33815;48.386;11.738;2023-07-20T06:06:03;96411.88;;;18.35;67.74
48041;BME280;33815;48.386;11.738;2023-07-20T06:08:29;96428.31;;;18.57;66.46
48041;BME280;33815;48.386;11.738;2023-07-20T06:10:54;96425.47;;;18.65;66.88
48041;BME280;33815;48.386;11.738;2023-07-20T06:13:20;96428.31;;;18.77;66.09
48041;BME280;33815;48.386;11.738;2023-07-20T06:15:45;96428.31;;;18.77;65.55
48041;BME280;33815;48.386;11.738;2023-07-20T06:18:11;96430.31;;;18.95;65.28
48041;BME280;33815;48.386;11.738;2023-07-20T06:20:36;96429.88;;;19.05;66.02
48041;BME280;33815;48.386;11.738;2023-07-20T06:23:01;96417.91;;;19.09;65.40
48041;BME280;33815;48.386;11.738;2023-07-20T06:25:26;96416.00;;;19.29;64.24
48041;BME280;33815;48.386;11.738;2023-07-20T06:27:52;96417.66;;;19.24;63.20
48041;BME280;33815;48.386;11.738;2023-07-20T06:30:18;96412.78;;;19.27;63.81
48041;BME280;33815;48.386;11.738;2023-07-20T06:32:43;96415.50;;;19.52;63.71
48041;BME280;33815;48.386;11.738;2023-07-20T06:35:08;96395.44;;;19.38;63.54
48041;BME280;33815;48.386;11.738;2023-07-20T06:37:35;96409.81;;;19.49;63.31
48041;BME280;33815;48.386;11.738;2023-07-20T06:40:01;96405.66;;;19.28;63.10
48041;BME280;33815;48.386;11.738;2023-07-20T06:42:26;96404.00;;;19.33;62.80
48041;BME280;33815;48.386;11.738;2023-07-20T06:44:52;96415.78;;;19.38;63.34
48041;BME280;33815;48.386;11.738;2023-07-20T06:47:17;96407.16;;;19.56;62.99
48041;BME280;33815;48.386;11.738;2023-07-20T06:49:42;96414.63;;;19.65;63.39
48041;BME280;33815;48.386;11.738;2023-07-20T06:52:07;96408.28;;;19.66;61.38
48041;BME280;33815;48.386;11.738;2023-07-20T06:54:33;96407.03;;;19.82;62.69
48041;BME280;33815;48.386;11.738;2023-07-20T06:56:58;96414.97;;;20.14;61.56
48041;BME280;33815;48.386;11.738;2023-07-20T06:59:23;96413.13;;;19.83;60.83
48041;BME280;33815;48.386;11.738;2023-07-20T07:01:49;96409.34;;;19.97;61.22
48041;BME280;33815;48.386;11.738;2023-07-20T07:04:14;96408.34;;;20.24;63.22
48041;BME280;33815;48.386;11.738;2023-07-20T07:06:40;96394.41;;;20.35;59.96
48041;BME280;33815;48.386;11.738;2023-07-20T07:09:05;96412.63;;;20.50;60.21
48041;BME280;33815;48.386;11.738;2023-07-20T07:11:30;96397.44;;;20.39;58.75
48041;BME280;33815;48.386;11.738;2023-07-20T07:13:56;96412.41;;;20.51;57.81
48041;BME280;33815;48.386;11.738;2023-07-20T07:16:21;96419.22;;;20.41;58.00
48041;BME280;33815;48.386;11.738;2023-07-20T07:18:47;96415.34;;;20.62;59.11
48041;BME280;33815;48.386;11.738;2023-07-20T07:21:13;96407.81;;;20.65;57.88
48041;BME280;33815;48.386;11.738;2023-07-20T07:23:39;96408.34;;;20.74;56.31
48041;BME280;33815;48.386;11.738;2023-07-20T07:26:04;96403.16;;;20.61;58.59
48041;BME280;33815;48.386;11.738;2023-07-20T07:28:30;96413.28;;;20.70;57.50
48041;BME280;33815;48.386;11.738;2023-07-20T07:30:56;96419.34;;;20.96;57.09
48041;BME280;33815;48.386;11.738;2023-07-20T07:33:22;96392.25;;;20.94;54.22
48041;BME280;33815;48.386;11.738;2023-07-20T07:35:47;96410.59;;;21.14;54.21
48041;BME280;33815;48.386;11.738;2023-07-20T07:38:13;96400.50;;;21.04;54.38
48041;BME280;33815;48.386;11.738;2023-07-20T07:40:38;96411.50;;;21.38;53.86
48041;BME280;33815;48.386;11.738;2023-07-20T07:43:03;96411.66;;;21.44;53.87
48041;BME280;33815;48.386;11.738;2023-07-20T07:45:28;96400.00;;;20.96;53.96
48041;BME280;33815;48.386;11.738;2023-07-20T07:47:54;96415.06;;;21.32;51.85
48041;BME280;33815;48.386;11.738;2023-07-20T07:50:19;96397.63;;;21.25;51.85
48041;BME280;33815;48.386;11.738;2023-07-20T07:52:44;96405.69;;;21.48;51.87
48041;BME280;33815;48.386;11.738;2023-07-20T07:55:10;96414.31;;;21.62;49.70
48041;BME280;33815;48.386;11.738;2023-07-20T07:57:35;96405.75;;;21.60;51.29
48041;BME280;33815;48.386;11.738;2023-07-20T08:00:01;96415.47;;;21.66;50.14
48041;BME280;33815;48.386;11.738;2023-07-20T08:02:26;96407.13;;;21.81;48.70
48041;BME280;33815;48.386;11.738;2023-07-20T08:04:51;96405.88;;;21.96;49.36
48041;BME280;33815;48.386;11.738;2023-07-20T08:07:17;96411.44;;;22.06;48.35
48041;BME280;33815;48.386;11.738;2023-07-20T08:09:43;96402.97;;;21.85;48.47
48041;BME280;33815;48.386;11.738;2023-07-20T08:12:08;96408.22;;;22.16;47.35
48041;BME280;33815;48.386;11.738;2023-07-20T08:14:33;96403.31;;;21.77;48.13
48041;BME280;33815;48.386;11.738;2023-07-20T08:16:59;96405.78;;;22.02;47.53
48041;BME280;33815;48.386;11.738;2023-07-20T08:19:24;96404.56;;;22.29;45.15
48041;BME280;33815;48.386;11.738;2023-07-20T08:21:49;96398.44;;;22.16;44.92
48041;BME280;33815;48.386;11.738;2023-07-20T08:24:15;96384.16;;;22.41;45.95
48041;BME280;33815;48.386;11.738;2023-07-20T08:26:40;96382.44;;;22.47;44.05
48041;BME280;33815;48.386;11.738;2023-07-20T08:29:05;96394.69;;;22.48;45.63
48041;BME280;33815;48.386;11.738;2023-07-20T08:31:31;96384.94;;;23.13;42.81
48041;BME280;33815;48.386;11.738;2023-07-20T08:33:56;96387.47;;;23.89;40.53
48041;BME280;33815;48.386;11.738;2023-07-20T08:36:22;96371.59;;;23.82;40.86
48041;BME280;33815;48.386;11.738;2023-07-20T08:38:47;96386.84;;;23.87;40.57
48041;BME280;33815;48.386;11.738;2023-07-20T08:41:14;96359.38;;;24.32;40.52
48041;BME280;33815;48.386;11.738;2023-07-20T08:43:42;96361.91;;;25.39;36.74
48041;BME280;33815;48.386;11.738;2023-07-20T08:46:11;96367.28;;;25.44;36.54
48041;BME280;33815;48.386;11.738;2023-07-20T08:48:38;96362.94;;;25.93;35.12
48041;BME280;33815;48.386;11.738;2023-07-20T08:51:04;96358.03;;;25.08;36.29
48041;BME280;33815;48.386;11.738;2023-07-20T08:53:31;96358.03;;;25.30;37.97
48041;BME280;33815;48.386;11.738;2023-07-20T08:55:58;96351.88;;;25.79;36.05
48041;BME280;33815;48.386;11.738;2023-07-20T08:58:25;96357.50;;;26.10;35.21
48041;BME280;33815;48.386;11.738;2023-07-20T09:00:52;96336.25;;;26.68;35.35
48041;BME280;33815;48.386;11.738;2023-07-20T09:03:18;96357.75;;;26.89;34.57
48041;BME280;33815;48.386;11.738;2023-07-20T09:05:44;96343.69;;;27.14;34.69
48041;BME280;33815;48.386;11.738;2023-07-20T09:08:10;96348.44;;;26.96;34.92
48041;BME280;33815;48.386;11.738;2023-07-20T09:10:35;96363.66;;;26.96;35.07
48041;BME280;33815;48.386;11.738;2023-07-20T09:13:00;96369.13;;;25.98;36.32
48041;BME280;33815;48.386;11.738;2023-07-20T09:15:26;96374.06;;;25.85;36.75
48041;BME280;33815;48.386;11.738;2023-07-20T09:17:51;96372.28;;;26.23;36.21
48041;BME280;33815;48.386;11.738;2023-07-20T09:20:19;96363.06;;;25.76;36.31
48041;BME280;33815;48.386;11.738;2023-07-20T09:22:46;96363.56;;;25.45;36.29
48041;BME280;33815;48.386;11.738;2023-07-20T09:25:13;96362.13;;;24.37;37.92
48041;BME280;33815;48.386;11.738;2023-07-20T09:27:43;96388.41;;;24.00;39.09
48041;BME280;33815;48.386;11.738;2023-07-20T09:30:10;96389.50;;;24.16;42.00
48041;BME280;33815;48.386;11.738;2023-07-20T09:32:49;96372.31;;;24.06;39.37
48041;BME280;33815;48.386;11.738;2023-07-20T09:35:17;96394.41;;;23.78;40.37
48041;BME280;33815;48.386;11.738;2023-07-20T09:37:47;96386.28;;;23.85;40.30
48041;BME280;33815;48.386;11.738;2023-07-20T09:40:15;96382.25;;;24.84;39.98
48041;BME280;33815;48.386;11.738;2023-07-20T09:42:42;96370.44;;;24.97;37.17
48041;BME280;33815;48.386;11.738;2023-07-20T09:45:08;96374.06;;;24.01;39.20
48041;BME280;33815;48.386;11.738;2023-07-20T09:47:35;96366.16;;;23.89;39.39
48041;BME280;33815;48.386;11.738;2023-07-20T09:50:01;96361.50;;;23.96;39.67
48041;BME280;33815;48.386;11.738;2023-07-20T09:52:29;96366.56;;;24.32;40.99
48041;BME280;33815;48.386;11.738;2023-07-20T09:54:55;96362.94;;;25.38;37.97
48041;BME280;33815;48.386;11.738;2023-07-20T09:57:21;96368.53;;;24.75;38.95
48041;BME280;33815;48.386;11.738;2023-07-20T09:59:46;96368.56;;;24.41;39.38
48041;BME280;33815;48.386;11.738;2023-07-20T10:02:33;96374.41;;;23.75;39.74
48041;BME280;33815;48.386;11.738;2023-07-20T10:05:02;96387.22;;;23.78;40.19
48041;BME280;33815;48.386;11.738;2023-07-20T10:07:27;96368.81;;;23.60;39.41
48041;BME280;33815;48.386;11.738;2023-07-20T10:09:53;96362.91;;;23.87;38.72
48041;BME280;33815;48.386;11.738;2023-07-20T10:12:22;96369.88;;;23.88;38.97
48041;BME280;33815;48.386;11.738;2023-07-20T10:14:54;96381.09;;;24.24;38.72
48041;BME280;33815;48.386;11.738;2023-07-20T10:17:25;96376.66;;;24.46;39.71
48041;BME280;33815;48.386;11.738;2023-07-20T10:19:54;96366.13;;;24.74;39.40
48041;BME280;33815;48.386;11.738;2023-07-20T10:22:26;96358.88;;;24.69;38.91
48041;BME280;33815;48.386;11.738;2023-07-20T10:24:52;96352.31;;;24.60;38.18
48041;BME280;33815;48.386;11.738;2023-07-20T10:27:20;96357.31;;;24.00;38.34
48041;BME280;33815;48.386;11.738;2023-07-20T10:29:46;96360.50;;;24.36;38.99
48041;BME280;33815;48.386;11.738;2023-07-20T10:32:12;96358.06;;;24.69;38.68
48041;BME280;33815;48.386;11.738;2023-07-20T10:34:38;96337.81;;;24.68;38.45
48041;BME280;33815;48.386;11.738;2023-07-20T10:37:04;96363.31;;;25.03;39.38
48041;BME280;33815;48.386;11.738;2023-07-20T10:39:33;96352.59;;;25.20;37.93
48041;BME280;33815;48.386;11.738;2023-07-20T10:42:09;96335.22;;;25.17;37.83
48041;BME280;33815;48.386;11.738;2023-07-20T10:44:38;96360.41;;;25.04;38.27
48041;BME280;33815;48.386;11.738;2023-07-20T10:47:09;96348.78;;;24.93;37.87
48041;BME280;33815;48.386;11.738;2023-07-20T10:49:34;96346.25;;;24.82;40.08
48041;BME280;33815;48.386;11.738;2023-07-20T10:52:04;96357.19;;;24.63;39.43
48041;BME280;33815;48.386;11.738;2023-07-20T10:56:57;96363.13;;;24.31;38.89
48041;BME280;33815;48.386;11.738;2023-07-20T11:01:57;96338.88;;;24.50;38.82
48041;BME280;33815;48.386;11.738;2023-07-20T11:07:04;96342.97;;;24.40;38.93
48041;BME280;33815;48.386;11.738;2023-07-20T11:09:34;96347.59;;;25.06;39.93
48041;BME280;33815;48.386;11.738;2023-07-20T11:12:10;96335.72;;;25.63;37.56
48041;BME280;33815;48.386;11.738;2023-07-20T11:14:40;96345.22;;;25.54;37.36
48041;BME280;33815;48.386;11.738;2023-07-20T11:17:13;96330.63;;;25.12;37.29
48041;BME280;33815;48.386;11.738;2023-07-20T11:19:39;96337.13;;;25.22;38.10
48041;BME280;33815;48.386;11.738;2023-07-20T11:22:08;96337.31;;;25.37;38.00
48041;BME280;33815;48.386;11.738;2023-07-20T11:24:34;96324.22;;;25.13;37.80
48041;BME280;33815;48.386;11.738;2023-07-20T11:27:03;96332.44;;;25.07;37.91
48041;BME280;33815;48.386;11.738;2023-07-20T11:29:28;96334.09;;;24.91;38.62
48041;BME280;33815;48.386;11.738;2023-07-20T11:31:53;96334.84;;;25.08;38.69
48041;BME280;33815;48.386;11.738;2023-07-20T11:34:20;96330.19;;;24.76;39.52
48041;BME280;33815;48.386;11.738;2023-07-20T11:36:48;96333.91;;;24.97;40.24
48041;BME280;33815;48.386;11.738;2023-07-20T11:39:16;96321.19;;;24.43;40.60
48041;BME280;33815;48.386;11.738;2023-07-20T11:41:47;96326.56;;;24.09;40.39
48041;BME280;33815;48.386;11.738;2023-07-20T11:44:13;96319.69;;;24.14;39.74
48041;BME280;33815;48.386;11.738;2023-07-20T11:46:42;96305.97;;;24.22;39.92
48041;BME280;33815;48.386;11.738;2023-07-20T11:49:08;96308.78;;;24.32;40.81
48041;BME280;33815;48.386;11.738;2023-07-20T11:51:34;96316.63;;;24.78;39.61
48041;BME280;33815;48.386;11.738;2023-07-20T11:54:01;96311.53;;;24.99;38.88
48041;BME280;33815;48.386;11.738;2023-07-20T11:56:27;96306.81;;;24.84;40.58
48041;BME280;33815;48.386;11.738;2023-07-20T11:58:56;96313.19;;;24.83;39.85
48041;BME280;33815;48.386;11.738;2023-07-20T12:01:24;96304.03;;;24.95;38.87
48041;BME280;33815;48.386;11.738;2023-07-20T12:03:49;96297.59;;;24.91;38.57
48041;BME280;33815;48.386;11.738;2023-07-20T12:06:15;96300.31;;;24.96;38.65
48041;BME280;33815;48.386;11.738;2023-07-20T12:08:44;96294.28;;;24.84;39.50
48041;BME280;33815;48.386;11.738;2023-07-20T12:11:10;96288.16;;;24.84;39.31
48041;BME280;33815;48.386;11.738;2023-07-20T12:13:42;96288.19;;;25.33;39.35
48041;BME280;33815;48.386;11.738;2023-07-20T12:16:14;96291.13;;;25.64;38.47
48041;BME280;33815;48.386;11.738;2023-07-20T12:18:41;96280.94;;;25.88;38.58
48041;BME280;33815;48.386;11.738;2023-07-20T12:21:07;96283.31;;;26.17;37.45
48041;BME280;33815;48.386;11.738;2023-07-20T12:23:40;96271.34;;;26.30;37.43
48041;BME280;33815;48.386;11.738;2023-07-20T12:26:07;96275.19;;;26.44;37.14
48041;BME280;33815;48.386;11.738;2023-07-20T12:28:38;96274.75;;;26.63;35.65
48041;BME280;33815;48.386;11.738;2023-07-20T12:31:03;96267.78;;;26.62;35.99
48041;BME280;33815;48.386;11.738;2023-07-20T12:33:29;96277.56;;;26.41;36.52
48041;BME280;33815;48.386;11.738;2023-07-20T12:35:54;96275.00;;;26.66;36.90
48041;BME280;33815;48.386;11.738;2023-07-20T12:38:21;96262.56;;;26.82;36.34
48041;BME280;33815;48.386;11.738;2023-07-20T12:40:47;96252.81;;;27.45;35.01
48041;BME280;33815;48.386;11.738;2023-07-20T12:43:12;96257.81;;;27.05;35.74
48041;BME280;33815;48.386;11.738;2023-07-20T12:45:38;96254.06;;;27.06;37.40
48041;BME280;33815;48.386;11.738;2023-07-20T12:48:03;96251.75;;;27.41;35.47
48041;BME280;33815;48.386;11.738;2023-07-20T12:50:29;96251.75;;;27.51;34.52
48041;BME280;33815;48.386;11.738;2023-07-20T12:52:55;96236.97;;;27.12;36.00
48041;BME280;33815;48.386;11.738;2023-07-20T12:55:20;96252.25;;;26.54;35.67
48041;BME280;33815;48.386;11.738;2023-07-20T12:57:46;96239.09;;;26.47;36.20